Woody, CA (93287)

4:59 AM PST on February 24, 2017 (GMT -0800)
McFarland | | Change Station

Elev 342 ft 35.69 °N, 119.23 °W | Updated 28 seconds ago

Clear
Clear
33.4 °F
Feels Like 30 °F
N
3.7
Wind Variable Wind from SSE

Today
High -- | Low -- °F
--% Chance of Precip.
Yesterday
High -- | Low -- °F
Precip. -- in
Pressure 30.27 in
Visibility 10.0 miles
Clouds Clear
Windchill 30 °F
Dew Point 32 °F
Humidity 93%
Rainfall 0.00 in
Snow Depth Not available.
6:31 AM 5:46 PM
Waning Crescent, 5% visible
METAR KPTV 241256Z AUTO 15004KT 10SM CLR M01/M02 A3022 RMK AO2 SLP248 T10111017 FZRANO
Pressure 30.27 in
Visibility 10.0 miles
Clouds Clear
Windchill 30 °F
Dew Point 32 °F
Humidity 93%
Rainfall 0.00 in
Snow Depth Not available.
6:31 AM 5:46 PM
Waning Crescent, 5% visible
METAR KPTV 241256Z AUTO 15004KT 10SM CLR M01/M02 A3022 RMK AO2 SLP248 T10111017 FZRANO

Get Your Daily Forecast Email!

Thanks for signing up!

Be on the lookout for a verification email in your inbox.

You'll start receiving the daily forecast at 8 AM.

×

10-Day Weather Forecast

Almanac

Astronomy

Feb. 24, 2017 Rise Set
Actual Time
Civil Twilight
Nautical Twilight
Astronomical Twilight
Moon
Length of Visible Light
Length of Day
Tomorrow will be .
, % of the Moon is Illuminated

Today's Extremes

State Highs State Lows

Community

WunderPhotos

Upload Photos

1,962,540 photos uploaded!

WunderBlog® & News

Nearby

Air Quality

  Air Quality AQ Index Pollutant
Not available.

Snow Depth

Station Depth Elevation

Earthquake Activity

City Distance Mag. Time & Date
Minimum magnitude displayed is 2.5.

Coastal Water Temperatures

Place Temperature

Stations

Nearby Weather Stations

Station Location Temp. Windchill Dew Point Humidity Wind Precip. Elev Updated Type
                   

Watches & Warnings

There are currently no watches in effect.